sensor_id;sensor_type;location;lat;lon;timestamp;pressure;altitude;pressure_sealevel;temperature;humidity
5380;BME280;2713;42.680;23.310;2023-08-06T00:00:39;93941.16;;;23.22;73.93
5380;BME280;2713;42.680;23.310;2023-08-06T00:03:06;93913.16;;;22.92;76.64
5380;BME280;2713;42.680;23.310;2023-08-06T00:05:33;93944.16;;;23.15;74.64
5380;BME280;2713;42.680;23.310;2023-08-06T00:08:00;93982.38;;;23.33;73.38
5380;BME280;2713;42.680;23.310;2023-08-06T00:10:27;93972.22;;;23.40;74.55
5380;BME280;2713;42.680;23.310;2023-08-06T00:12:55;93974.44;;;23.09;75.12
5380;BME280;2713;42.680;23.310;2023-08-06T00:15:22;93964.47;;;22.78;75.75
5380;BME280;2713;42.680;23.310;2023-08-06T00:17:49;93959.94;;;23.02;74.65
5380;BME280;2713;42.680;23.310;2023-08-06T00:20:16;93948.38;;;23.16;73.60
5380;BME280;2713;42.680;23.310;2023-08-06T00:22:43;93946.41;;;23.27;73.61
5380;BME280;2713;42.680;23.310;2023-08-06T00:25:09;93958.34;;;23.48;73.32
5380;BME280;2713;42.680;23.310;2023-08-06T00:27:36;93962.72;;;23.58;73.06
5380;BME280;2713;42.680;23.310;2023-08-06T00:30:06;93959.16;;;23.49;74.29
5380;BME280;2713;42.680;23.310;2023-08-06T00:32:33;93948.44;;;23.35;75.52
5380;BME280;2713;42.680;23.310;2023-08-06T00:35:00;93943.28;;;23.44;73.74
5380;BME280;2713;42.680;23.310;2023-08-06T00:37:26;93935.06;;;23.45;73.29
5380;BME280;2713;42.680;23.310;2023-08-06T00:39:53;93940.28;;;23.50;73.17
5380;BME280;2713;42.680;23.310;2023-08-06T00:42:20;93930.03;;;23.62;73.32
5380;BME280;2713;42.680;23.310;2023-08-06T00:44:48;93926.38;;;23.58;74.32
5380;BME280;2713;42.680;23.310;2023-08-06T00:47:16;93928.38;;;23.66;73.69
5380;BME280;2713;42.680;23.310;2023-08-06T00:49:44;93924.84;;;23.71;72.17
5380;BME280;2713;42.680;23.310;2023-08-06T00:52:11;93927.66;;;23.61;71.65
5380;BME280;2713;42.680;23.310;2023-08-06T00:54:38;93931.75;;;23.72;71.64
5380;BME280;2713;42.680;23.310;2023-08-06T00:57:07;93916.78;;;23.62;71.24
5380;BME280;2713;42.680;23.310;2023-08-06T00:59:34;93923.69;;;23.77;71.66
5380;BME280;2713;42.680;23.310;2023-08-06T01:02:01;93912.72;;;23.84;70.10
5380;BME280;2713;42.680;23.310;2023-08-06T01:04:29;93912.88;;;23.73;71.11
5380;BME280;2713;42.680;23.310;2023-08-06T01:07:03;93885.72;;;23.44;71.69
5380;BME280;2713;42.680;23.310;2023-08-06T01:09:42;93885.66;;;23.49;72.11
5380;BME280;2713;42.680;23.310;2023-08-06T01:12:18;93875.53;;;23.51;71.68
5380;BME280;2713;42.680;23.310;2023-08-06T01:14:49;93883.25;;;23.66;71.46
5380;BME280;2713;42.680;23.310;2023-08-06T01:17:20;93897.63;;;23.65;69.91
5380;BME280;2713;42.680;23.310;2023-08-06T01:19:48;93887.31;;;23.45;73.47
5380;BME280;2713;42.680;23.310;2023-08-06T01:22:16;93886.34;;;23.17;74.11
5380;BME280;2713;42.680;23.310;2023-08-06T01:24:48;93889.69;;;23.23;75.96
5380;BME280;2713;42.680;23.310;2023-08-06T01:27:23;93886.34;;;23.17;74.04
5380;BME280;2713;42.680;23.310;2023-08-06T01:30:02;93875.59;;;23.28;74.27
5380;BME280;2713;42.680;23.310;2023-08-06T01:32:32;93879.97;;;23.18;74.84
5380;BME280;2713;42.680;23.310;2023-08-06T01:35:02;93872.88;;;23.14;73.87
5380;BME280;2713;42.680;23.310;2023-08-06T01:37:32;93861.28;;;23.05;74.88
5380;BME280;2713;42.680;23.310;2023-08-06T01:40:06;93866.53;;;23.10;74.52
5380;BME280;2713;42.680;23.310;2023-08-06T01:42:33;93868.56;;;23.18;75.05
5380;BME280;2713;42.680;23.310;2023-08-06T01:44:59;93873.34;;;23.16;75.56
5380;BME280;2713;42.680;23.310;2023-08-06T01:47:26;93868.44;;;23.28;74.70
5380;BME280;2713;42.680;23.310;2023-08-06T01:49:53;93867.91;;;23.26;74.58
5380;BME280;2713;42.680;23.310;2023-08-06T01:52:20;93873.22;;;23.07;75.08
5380;BME280;2713;42.680;23.310;2023-08-06T01:54:48;93883.94;;;22.97;75.31
5380;BME280;2713;42.680;23.310;2023-08-06T01:57:15;93867.59;;;22.90;74.77
5380;BME280;2713;42.680;23.310;2023-08-06T01:59:41;93867.66;;;22.85;74.89
5380;BME280;2713;42.680;23.310;2023-08-06T02:02:08;93867.97;;;22.84;74.78
5380;BME280;2713;42.680;23.310;2023-08-06T02:04:35;93854.13;;;22.87;74.94
5380;BME280;2713;42.680;23.310;2023-08-06T02:07:02;93854.72;;;23.02;74.53
5380;BME280;2713;42.680;23.310;2023-08-06T02:09:29;93852.94;;;22.98;74.91
5380;BME280;2713;42.680;23.310;2023-08-06T02:11:57;93844.16;;;22.79;76.97
5380;BME280;2713;42.680;23.310;2023-08-06T02:14:24;93853.25;;;22.91;75.25
5380;BME280;2713;42.680;23.310;2023-08-06T02:16:50;93854.75;;;22.79;75.11
5380;BME280;2713;42.680;23.310;2023-08-06T02:19:17;93867.63;;;22.66;75.83
5380;BME280;2713;42.680;23.310;2023-08-06T02:21:44;93873.06;;;22.51;76.58
5380;BME280;2713;42.680;23.310;2023-08-06T02:24:11;93885.00;;;22.49;76.96
5380;BME280;2713;42.680;23.310;2023-08-06T02:26:38;93893.44;;;22.27;79.20
5380;BME280;2713;42.680;23.310;2023-08-06T02:29:06;93869.69;;;22.22;83.26
5380;BME280;2713;42.680;23.310;2023-08-06T02:31:32;93867.88;;;22.41;83.12
5380;BME280;2713;42.680;23.310;2023-08-06T02:33:59;93866.81;;;22.66;80.93
5380;BME280;2713;42.680;23.310;2023-08-06T02:36:26;93866.31;;;22.88;79.13
5380;BME280;2713;42.680;23.310;2023-08-06T02:38:54;93873.00;;;23.04;78.10
5380;BME280;2713;42.680;23.310;2023-08-06T02:41:22;93901.50;;;22.93;77.19
5380;BME280;2713;42.680;23.310;2023-08-06T02:43:49;93914.97;;;22.73;78.23
5380;BME280;2713;42.680;23.310;2023-08-06T02:46:17;93912.09;;;22.93;78.99
5380;BME280;2713;42.680;23.310;2023-08-06T02:48:44;93900.75;;;23.11;78.82
5380;BME280;2713;42.680;23.310;2023-08-06T02:51:12;93886.47;;;23.26;77.84
5380;BME280;2713;42.680;23.310;2023-08-06T02:53:39;93865.69;;;23.33;77.74
5380;BME280;2713;42.680;23.310;2023-08-06T02:56:09;93846.84;;;23.16;77.59
5380;BME280;2713;42.680;23.310;2023-08-06T02:58:50;93846.41;;;23.09;79.38
5380;BME280;2713;42.680;23.310;2023-08-06T03:01:31;93827.50;;;23.15;79.09
5380;BME280;2713;42.680;23.310;2023-08-06T03:04:05;93843.34;;;23.20;77.90
5380;BME280;2713;42.680;23.310;2023-08-06T03:06:37;93855.66;;;23.30;76.79
5380;BME280;2713;42.680;23.310;2023-08-06T03:09:04;93817.91;;;23.01;78.65
5380;BME280;2713;42.680;23.310;2023-08-06T03:11:31;93801.84;;;22.92;80.18
5380;BME280;2713;42.680;23.310;2023-08-06T03:14:04;93832.13;;;23.05;78.60
5380;BME280;2713;42.680;23.310;2023-08-06T03:16:32;93865.53;;;23.06;78.28
5380;BME280;2713;42.680;23.310;2023-08-06T03:18:59;93842.41;;;23.11;79.11
5380;BME280;2713;42.680;23.310;2023-08-06T03:21:26;93819.03;;;23.13;79.98
5380;BME280;2713;42.680;23.310;2023-08-06T03:23:53;93784.88;;;22.93;81.59
5380;BME280;2713;42.680;23.310;2023-08-06T03:26:23;93797.25;;;23.16;79.17
5380;BME280;2713;42.680;23.310;2023-08-06T03:28:51;93834.16;;;22.94;78.34
5380;BME280;2713;42.680;23.310;2023-08-06T03:31:18;93850.06;;;22.94;79.58
5380;BME280;2713;42.680;23.310;2023-08-06T03:33:46;93867.59;;;22.90;79.83
5380;BME280;2713;42.680;23.310;2023-08-06T03:36:16;93877.38;;;22.71;80.60
5380;BME280;2713;42.680;23.310;2023-08-06T03:38:42;93880.22;;;22.51;81.53
5380;BME280;2713;42.680;23.310;2023-08-06T03:41:12;93869.59;;;22.80;80.44
5380;BME280;2713;42.680;23.310;2023-08-06T03:43:39;93875.34;;;23.05;80.21
5380;BME280;2713;42.680;23.310;2023-08-06T03:46:11;93872.00;;;23.00;80.53
5380;BME280;2713;42.680;23.310;2023-08-06T03:48:38;93876.56;;;23.13;80.40
5380;BME280;2713;42.680;23.310;2023-08-06T03:51:06;93857.88;;;23.04;81.23
5380;BME280;2713;42.680;23.310;2023-08-06T03:53:33;93862.16;;;23.19;80.29
5380;BME280;2713;42.680;23.310;2023-08-06T03:56:00;93874.16;;;23.35;79.75
5380;BME280;2713;42.680;23.310;2023-08-06T03:58:28;93869.78;;;23.25;77.73
5380;BME280;2713;42.680;23.310;2023-08-06T04:00:59;93876.53;;;23.18;77.29
5380;BME280;2713;42.680;23.310;2023-08-06T04:03:29;93886.13;;;23.14;76.91
5380;BME280;2713;42.680;23.310;2023-08-06T04:05:56;93887.63;;;23.20;76.16
5380;BME280;2713;42.680;23.310;2023-08-06T04:08:24;93891.19;;;23.29;75.95
5380;BME280;2713;42.680;23.310;2023-08-06T04:10:52;93898.22;;;23.20;77.40
5380;BME280;2713;42.680;23.310;2023-08-06T04:13:19;93902.47;;;23.21;76.25
5380;BME280;2713;42.680;23.310;2023-08-06T04:15:46;93896.16;;;23.36;77.42
5380;BME280;2713;42.680;23.310;2023-08-06T04:18:14;93896.38;;;23.39;77.20
5380;BME280;2713;42.680;23.310;2023-08-06T04:20:44;93886.78;;;23.43;78.34
5380;BME280;2713;42.680;23.310;2023-08-06T04:23:11;93892.88;;;23.44;78.38
5380;BME280;2713;42.680;23.310;2023-08-06T04:25:39;93891.47;;;23.51;75.69
5380;BME280;2713;42.680;23.310;2023-08-06T04:28:06;93879.41;;;23.21;76.81
5380;BME280;2713;42.680;23.310;2023-08-06T04:30:33;93874.84;;;23.22;77.11
5380;BME280;2713;42.680;23.310;2023-08-06T04:33:01;93872.63;;;23.29;76.45
5380;BME280;2713;42.680;23.310;2023-08-06T04:35:28;93871.56;;;23.30;76.69
5380;BME280;2713;42.680;23.310;2023-08-06T04:37:55;93859.22;;;23.39;77.31
5380;BME280;2713;42.680;23.310;2023-08-06T04:40:22;93852.88;;;23.21;77.63
5380;BME280;2713;42.680;23.310;2023-08-06T04:42:50;93826.44;;;22.98;78.15
5380;BME280;2713;42.680;23.310;2023-08-06T04:45:18;93849.56;;;23.11;77.26
5380;BME280;2713;42.680;23.310;2023-08-06T04:47:45;93839.47;;;23.13;77.15
5380;BME280;2713;42.680;23.310;2023-08-06T04:50:12;93831.78;;;22.93;78.13
5380;BME280;2713;42.680;23.310;2023-08-06T04:52:38;93833.47;;;23.07;77.72
5380;BME280;2713;42.680;23.310;2023-08-06T04:55:05;93810.44;;;23.03;78.34
5380;BME280;2713;42.680;23.310;2023-08-06T04:57:33;93808.66;;;22.98;78.23
5380;BME280;2713;42.680;23.310;2023-08-06T05:00:01;93807.22;;;22.87;78.01
5380;BME280;2713;42.680;23.310;2023-08-06T05:02:28;93806.66;;;22.90;76.99
5380;BME280;2713;42.680;23.310;2023-08-06T05:04:54;93800.22;;;23.15;76.59
5380;BME280;2713;42.680;23.310;2023-08-06T05:07:21;93807.94;;;23.30;77.44
5380;BME280;2713;42.680;23.310;2023-08-06T05:09:48;93813.75;;;23.83;74.42
5380;BME280;2713;42.680;23.310;2023-08-06T05:12:15;93813.53;;;24.39;71.89
5380;BME280;2713;42.680;23.310;2023-08-06T05:14:41;93808.97;;;24.81;69.64
5380;BME280;2713;42.680;23.310;2023-08-06T05:17:10;93820.16;;;24.83;70.23
5380;BME280;2713;42.680;23.310;2023-08-06T05:19:36;93819.63;;;24.81;69.62
5380;BME280;2713;42.680;23.310;2023-08-06T05:22:04;93821.22;;;24.95;69.25
5380;BME280;2713;42.680;23.310;2023-08-06T05:24:30;93823.88;;;24.95;70.06
5380;BME280;2713;42.680;23.310;2023-08-06T05:26:57;93820.69;;;25.07;69.52
5380;BME280;2713;42.680;23.310;2023-08-06T05:29:24;93818.34;;;24.92;70.91
5380;BME280;2713;42.680;23.310;2023-08-06T05:31:52;93815.34;;;25.20;70.92
5380;BME280;2713;42.680;23.310;2023-08-06T05:34:20;93816.16;;;25.65;68.86
5380;BME280;2713;42.680;23.310;2023-08-06T05:36:47;93818.22;;;25.91;67.72
5380;BME280;2713;42.680;23.310;2023-08-06T05:39:14;93816.25;;;26.05;66.25
5380;BME280;2713;42.680;23.310;2023-08-06T05:41:40;93812.53;;;26.06;65.49
5380;BME280;2713;42.680;23.310;2023-08-06T05:44:07;93811.66;;;25.97;66.33
5380;BME280;2713;42.680;23.310;2023-08-06T05:46:34;93802.38;;;25.86;66.79
5380;BME280;2713;42.680;23.310;2023-08-06T05:49:01;93809.63;;;25.49;65.39
5380;BME280;2713;42.680;23.310;2023-08-06T05:51:29;93810.63;;;25.04;65.93
5380;BME280;2713;42.680;23.310;2023-08-06T05:53:55;93821.69;;;25.33;65.98
5380;BME280;2713;42.680;23.310;2023-08-06T05:56:22;93823.91;;;25.76;64.89
5380;BME280;2713;42.680;23.310;2023-08-06T05:58:49;93831.28;;;26.01;62.41
5380;BME280;2713;42.680;23.310;2023-08-06T06:01:18;93821.44;;;25.79;60.82
5380;BME280;2713;42.680;23.310;2023-08-06T06:03:45;93835.03;;;26.00;60.49
5380;BME280;2713;42.680;23.310;2023-08-06T06:06:12;93840.81;;;26.24;59.24
5380;BME280;2713;42.680;23.310;2023-08-06T06:08:40;93832.53;;;26.26;60.89
5380;BME280;2713;42.680;23.310;2023-08-06T06:11:06;93840.28;;;26.13;60.80
5380;BME280;2713;42.680;23.310;2023-08-06T06:13:33;93837.38;;;26.23;59.61
5380;BME280;2713;42.680;23.310;2023-08-06T06:16:00;93838.38;;;26.36;58.14
5380;BME280;2713;42.680;23.310;2023-08-06T06:18:27;93842.28;;;26.30;58.82
5380;BME280;2713;42.680;23.310;2023-08-06T06:20:53;93846.66;;;26.04;58.52
5380;BME280;2713;42.680;23.310;2023-08-06T06:23:20;93866.75;;;26.41;56.35
5380;BME280;2713;42.680;23.310;2023-08-06T06:25:50;93872.72;;;26.77;56.70
5380;BME280;2713;42.680;23.310;2023-08-06T06:28:17;93865.31;;;27.13;55.31
5380;BME280;2713;42.680;23.310;2023-08-06T06:30:43;93874.03;;;26.18;56.57
5380;BME280;2713;42.680;23.310;2023-08-06T06:33:10;93877.56;;;26.13;59.13
5380;BME280;2713;42.680;23.310;2023-08-06T06:35:37;93872.41;;;26.70;58.20
5380;BME280;2713;42.680;23.310;2023-08-06T06:38:04;93885.38;;;26.10;59.41
5380;BME280;2713;42.680;23.310;2023-08-06T06:40:30;93897.25;;;25.82;58.68
5380;BME280;2713;42.680;23.310;2023-08-06T06:43:00;93907.72;;;26.00;59.11
5380;BME280;2713;42.680;23.310;2023-08-06T06:45:26;93902.56;;;25.59;60.94
5380;BME280;2713;42.680;23.310;2023-08-06T06:47:53;93914.75;;;25.11;62.16
5380;BME280;2713;42.680;23.310;2023-08-06T06:50:20;93907.66;;;24.65;65.83
5380;BME280;2713;42.680;23.310;2023-08-06T06:52:47;93904.19;;;24.51;66.11
5380;BME280;2713;42.680;23.310;2023-08-06T06:55:14;93911.81;;;24.39;64.36
5380;BME280;2713;42.680;23.310;2023-08-06T06:57:40;93922.16;;;24.27;63.65
5380;BME280;2713;42.680;23.310;2023-08-06T07:00:09;93922.44;;;24.26;64.54
5380;BME280;2713;42.680;23.310;2023-08-06T07:02:37;93923.91;;;25.05;61.45
5380;BME280;2713;42.680;23.310;2023-08-06T07:05:04;93919.59;;;25.58;58.77
5380;BME280;2713;42.680;23.310;2023-08-06T07:07:32;93933.09;;;25.98;57.00
5380;BME280;2713;42.680;23.310;2023-08-06T07:09:59;93929.47;;;26.16;55.71
5380;BME280;2713;42.680;23.310;2023-08-06T07:12:26;93936.31;;;25.50;58.63
5380;BME280;2713;42.680;23.310;2023-08-06T07:14:53;93946.78;;;26.27;55.26
5380;BME280;2713;42.680;23.310;2023-08-06T07:17:21;93949.56;;;26.75;52.64
5380;BME280;2713;42.680;23.310;2023-08-06T07:19:48;93938.25;;;26.92;51.28
5380;BME280;2713;42.680;23.310;2023-08-06T07:22:15;93952.97;;;27.37;49.92
5380;BME280;2713;42.680;23.310;2023-08-06T07:24:41;93919.69;;;27.43;49.87
5380;BME280;2713;42.680;23.310;2023-08-06T07:27:08;93938.19;;;27.31;49.66
5380;BME280;2713;42.680;23.310;2023-08-06T07:29:35;93940.81;;;27.88;48.42
5380;BME280;2713;42.680;23.310;2023-08-06T07:32:02;93936.41;;;27.66;48.64
5380;BME280;2713;42.680;23.310;2023-08-06T07:34:30;93939.00;;;27.40;49.34
5380;BME280;2713;42.680;23.310;2023-08-06T07:36:57;93938.16;;;28.13;48.10
5380;BME280;2713;42.680;23.310;2023-08-06T07:39:23;93925.69;;;28.43;47.76
5380;BME280;2713;42.680;23.310;2023-08-06T07:41:50;93930.53;;;28.67;46.08
5380;BME280;2713;42.680;23.310;2023-08-06T07:44:17;93944.06;;;28.70;45.85
5380;BME280;2713;42.680;23.310;2023-08-06T07:46:44;93928.50;;;28.47;46.13
5380;BME280;2713;42.680;23.310;2023-08-06T07:49:10;93930.88;;;28.48;46.18
5380;BME280;2713;42.680;23.310;2023-08-06T07:51:38;93923.53;;;28.92;45.56
5380;BME280;2713;42.680;23.310;2023-08-06T07:54:05;93927.81;;;29.51;44.83
5380;BME280;2713;42.680;23.310;2023-08-06T07:56:32;93925.47;;;29.12;45.32
5380;BME280;2713;42.680;23.310;2023-08-06T07:58:59;93918.91;;;29.01;45.18
5380;BME280;2713;42.680;23.310;2023-08-06T08:01:26;93927.19;;;28.79;46.29
5380;BME280;2713;42.680;23.310;2023-08-06T08:03:53;93917.09;;;28.84;45.39
5380;BME280;2713;42.680;23.310;2023-08-06T08:06:19;93915.16;;;28.47;46.80
5380;BME280;2713;42.680;23.310;2023-08-06T08:08:47;93910.66;;;28.13;48.28
5380;BME280;2713;42.680;23.310;2023-08-06T08:11:14;93916.78;;;28.86;47.52
5380;BME280;2713;42.680;23.310;2023-08-06T08:13:41;93922.53;;;29.63;45.64
5380;BME280;2713;42.680;23.310;2023-08-06T08:16:08;93912.78;;;29.00;45.78
5380;BME280;2713;42.680;23.310;2023-08-06T08:18:35;93925.91;;;28.12;47.53
5380;BME280;2713;42.680;23.310;2023-08-06T08:21:02;93919.97;;;28.70;45.93
5380;BME280;2713;42.680;23.310;2023-08-06T08:23:29;93920.50;;;28.47;45.58
5380;BME280;2713;42.680;23.310;2023-08-06T08:25:58;93915.00;;;28.98;45.91
5380;BME280;2713;42.680;23.310;2023-08-06T08:28:25;93917.66;;;28.43;47.25
5380;BME280;2713;42.680;23.310;2023-08-06T08:30:51;93912.97;;;28.40;48.09
5380;BME280;2713;42.680;23.310;2023-08-06T08:33:18;93926.94;;;28.54;48.08
5380;BME280;2713;42.680;23.310;2023-08-06T08:35:45;93917.47;;;28.65;47.10
5380;BME280;2713;42.680;23.310;2023-08-06T08:38:12;93918.03;;;27.82;48.49
5380;BME280;2713;42.680;23.310;2023-08-06T08:40:44;93914.00;;;27.19;50.23
5380;BME280;2713;42.680;23.310;2023-08-06T08:43:13;93906.16;;;27.31;50.11
5380;BME280;2713;42.680;23.310;2023-08-06T08:45:42;93915.34;;;27.82;49.26
5380;BME280;2713;42.680;23.310;2023-08-06T08:48:12;93906.25;;;28.17;47.71
5380;BME280;2713;42.680;23.310;2023-08-06T08:50:40;93906.97;;;27.40;49.85
5380;BME280;2713;42.680;23.310;2023-08-06T08:53:08;93911.28;;;27.67;49.66
5380;BME280;2713;42.680;23.310;2023-08-06T08:55:38;93897.84;;;28.44;48.03
5380;BME280;2713;42.680;23.310;2023-08-06T08:58:05;93893.16;;;28.88;47.72
5380;BME280;2713;42.680;23.310;2023-08-06T09:00:34;93894.88;;;29.30;46.61
5380;BME280;2713;42.680;23.310;2023-08-06T09:03:02;93895.81;;;28.96;46.46
5380;BME280;2713;42.680;23.310;2023-08-06T09:05:31;93894.47;;;28.09;48.77
5380;BME280;2713;42.680;23.310;2023-08-06T09:08:02;93892.69;;;27.36;50.46
5380;BME280;2713;42.680;23.310;2023-08-06T09:10:30;93887.91;;;27.16;50.88
5380;BME280;2713;42.680;23.310;2023-08-06T09:12:57;93887.84;;;27.64;50.53
5380;BME280;2713;42.680;23.310;2023-08-06T09:15:26;93879.19;;;28.36;48.90
5380;BME280;2713;42.680;23.310;2023-08-06T09:17:55;93876.06;;;28.25;49.03
5380;BME280;2713;42.680;23.310;2023-08-06T09:20:22;93878.13;;;27.77;50.27
5380;BME280;2713;42.680;23.310;2023-08-06T09:22:49;93877.09;;;27.30;51.07
5380;BME280;2713;42.680;23.310;2023-08-06T09:25:21;93867.09;;;27.35;50.84
5380;BME280;2713;42.680;23.310;2023-08-06T09:27:49;93865.25;;;27.53;48.84
5380;BME280;2713;42.680;23.310;2023-08-06T09:30:28;93869.00;;;27.86;48.16
5380;BME280;2713;42.680;23.310;2023-08-06T09:32:57;93871.28;;;28.39;47.57
5380;BME280;2713;42.680;23.310;2023-08-06T09:35:27;93863.41;;;28.89;45.22
5380;BME280;2713;42.680;23.310;2023-08-06T09:37:54;93866.69;;;28.95;43.64
5380;BME280;2713;42.680;23.310;2023-08-06T09:40:25;93857.25;;;28.97;42.13
5380;BME280;2713;42.680;23.310;2023-08-06T09:42:52;93850.75;;;28.60;42.73
5380;BME280;2713;42.680;23.310;2023-08-06T09:45:19;93847.59;;;28.76;42.30
5380;BME280;2713;42.680;23.310;2023-08-06T09:47:47;93866.22;;;28.46;42.43
5380;BME280;2713;42.680;23.310;2023-08-06T09:50:19;93859.88;;;28.68;41.19
5380;BME280;2713;42.680;23.310;2023-08-06T09:52:47;93861.69;;;28.85;40.18
5380;BME280;2713;42.680;23.310;2023-08-06T09:55:14;93866.00;;;29.06;41.66
5380;BME280;2713;42.680;23.310;2023-08-06T09:57:42;93852.47;;;28.65;42.70
5380;BME280;2713;42.680;23.310;2023-08-06T10:00:10;93860.16;;;28.29;43.12
5380;BME280;2713;42.680;23.310;2023-08-06T10:02:40;93830.53;;;27.61;43.69
5380;BME280;2713;42.680;23.310;2023-08-06T10:05:08;93863.00;;;27.38;43.91
5380;BME280;2713;42.680;23.310;2023-08-06T10:07:37;93873.19;;;27.27;44.67
5380;BME280;2713;42.680;23.310;2023-08-06T10:10:05;93875.69;;;27.15;45.23
5380;BME280;2713;42.680;23.310;2023-08-06T10:12:34;93875.81;;;27.01;45.93
5380;BME280;2713;42.680;23.310;2023-08-06T10:15:06;93883.63;;;26.89;46.87
5380;BME280;2713;42.680;23.310;2023-08-06T10:17:35;93878.59;;;26.88;47.11
5380;BME280;2713;42.680;23.310;2023-08-06T10:20:04;93869.09;;;27.21;46.41
5380;BME280;2713;42.680;23.310;2023-08-06T10:22:32;93873.56;;;27.86;44.99
5380;BME280;2713;42.680;23.310;2023-08-06T10:25:01;93873.56;;;27.86;44.83
5380;BME280;2713;42.680;23.310;2023-08-06T10:27:31;93872.78;;;27.59;44.63
5380;BME280;2713;42.680;23.310;2023-08-06T10:30:23;93866.59;;;27.33;44.20
5380;BME280;2713;42.680;23.310;2023-08-06T10:32:51;93876.03;;;27.39;45.85
5380;BME280;2713;42.680;23.310;2023-08-06T10:35:28;93883.28;;;27.82;45.86
5380;BME280;2713;42.680;23.310;2023-08-06T10:37:58;93891.78;;;27.75;45.95
5380;BME280;2713;42.680;23.310;2023-08-06T10:40:27;93892.38;;;27.29;47.08
5380;BME280;2713;42.680;23.310;2023-08-06T10:42:55;93893.88;;;27.13;48.00
5380;BME280;2713;42.680;23.310;2023-08-06T10:45:22;93891.84;;;27.10;48.29
5380;BME280;2713;42.680;23.310;2023-08-06T10:47:54;93898.41;;;27.04;48.45
5380;BME280;2713;42.680;23.310;2023-08-06T10:50:21;93907.03;;;27.01;48.49
5380;BME280;2713;42.680;23.310;2023-08-06T10:52:48;93907.16;;;26.96;48.58
5380;BME280;2713;42.680;23.310;2023-08-06T10:55:22;93905.41;;;26.83;49.21
5380;BME280;2713;42.680;23.310;2023-08-06T10:57:51;93907.00;;;26.92;49.18
5380;BME280;2713;42.680;23.310;2023-08-06T11:00:21;93915.44;;;26.86;48.88
5380;BME280;2713;42.680;23.310;2023-08-06T11:02:49;93917.03;;;26.87;48.93
5380;BME280;2713;42.680;23.310;2023-08-06T11:05:16;93916.75;;;26.88;49.04
5380;BME280;2713;42.680;23.310;2023-08-06T11:07:43;93912.13;;;26.80;49.03
5380;BME280;2713;42.680;23.310;2023-08-06T11:10:11;93897.91;;;26.54;48.80
5380;BME280;2713;42.680;23.310;2023-08-06T11:12:41;93924.91;;;26.61;49.33
5380;BME280;2713;42.680;23.310;2023-08-06T11:15:10;93915.88;;;26.48;49.78
5380;BME280;2713;42.680;23.310;2023-08-06T11:17:39;93924.19;;;26.47;50.99
5380;BME280;2713;42.680;23.310;2023-08-06T11:20:07;93937.97;;;26.40;51.63
5380;BME280;2713;42.680;23.310;2023-08-06T11:22:36;93961.03;;;26.23;52.53
5380;BME280;2713;42.680;23.310;2023-08-06T11:25:04;93956.31;;;25.84;53.07
5380;BME280;2713;42.680;23.310;2023-08-06T11:27:31;93960.16;;;25.91;55.72
5380;BME280;2713;42.680;23.310;2023-08-06T11:29:58;93952.53;;;25.98;56.42
5380;BME280;2713;42.680;23.310;2023-08-06T11:32:27;93948.22;;;26.11;53.31
5380;BME280;2713;42.680;23.310;2023-08-06T11:34:53;93946.75;;;26.18;52.34
5380;BME280;2713;42.680;23.310;2023-08-06T11:37:21;93950.78;;;26.38;52.07
5380;BME280;2713;42.680;23.310;2023-08-06T11:39:50;93943.13;;;26.67;52.68
5380;BME280;2713;42.680;23.310;2023-08-06T11:42:17;93935.31;;;27.02;53.77
5380;BME280;2713;42.680;23.310;2023-08-06T11:44:44;93930.19;;;27.23;53.22
5380;BME280;2713;42.680;23.310;2023-08-06T11:47:15;93929.16;;;27.49;49.99
5380;BME280;2713;42.680;23.310;2023-08-06T11:49:45;93917.22;;;27.55;52.21
5380;BME280;2713;42.680;23.310;2023-08-06T11:52:17;93918.66;;;27.53;51.03
5380;BME280;2713;42.680;23.310;2023-08-06T11:54:46;93924.16;;;27.65;50.46
5380;BME280;2713;42.680;23.310;2023-08-06T11:57:13;93915.94;;;27.44;51.20
5380;BME280;2713;42.680;23.310;2023-08-06T11:59:41;93918.50;;;27.66;49.99
5380;BME280;2713;42.680;23.310;2023-08-06T12:02:09;93911.59;;;27.83;49.90
5380;BME280;2713;42.680;23.310;2023-08-06T12:05:02;93912.19;;;27.71;50.36
5380;BME280;2713;42.680;23.310;2023-08-06T12:07:32;93914.56;;;27.81;48.54
5380;BME280;2713;42.680;23.310;2023-08-06T12:09:59;93910.00;;;27.99;48.07
5380;BME280;2713;42.680;23.310;2023-08-06T12:12:27;93906.56;;;27.90;49.62
5380;BME280;2713;42.680;23.310;2023-08-06T12:14:54;93898.53;;;27.64;46.11
5380;BME280;2713;42.680;23.310;2023-08-06T12:17:21;93891.00;;;27.57;45.29
5380;BME280;2713;42.680;23.310;2023-08-06T12:19:48;93903.13;;;27.63;46.00
5380;BME280;2713;42.680;23.310;2023-08-06T12:22:16;93903.41;;;27.62;45.52
5380;BME280;2713;42.680;23.310;2023-08-06T12:24:45;93890.06;;;27.62;45.85
5380;BME280;2713;42.680;23.310;2023-08-06T12:27:12;93904.28;;;27.40;44.95
5380;BME280;2713;42.680;23.310;2023-08-06T12:29:41;93903.50;;;27.31;46.03
5380;BME280;2713;42.680;23.310;2023-08-06T12:32:08;93897.69;;;27.29;45.89
5380;BME280;2713;42.680;23.310;2023-08-06T12:34:34;93894.69;;;27.22;46.45
5380;BME280;2713;42.680;23.310;2023-08-06T12:37:02;93904.09;;;27.19;46.18
5380;BME280;2713;42.680;23.310;2023-08-06T12:39:30;93911.47;;;27.05;45.95
5380;BME280;2713;42.680;23.310;2023-08-06T12:41:58;93909.56;;;27.06;45.80
5380;BME280;2713;42.680;23.310;2023-08-06T12:44:25;93897.66;;;27.12;45.86
5380;BME280;2713;42.680;23.310;2023-08-06T12:46:52;93895.97;;;27.25;45.88
5380;BME280;2713;42.680;23.310;2023-08-06T12:49:19;93893.16;;;27.38;45.97
5380;BME280;2713;42.680;23.310;2023-08-06T12:51:47;93889.06;;;27.32;46.12
5380;BME280;2713;42.680;23.310;2023-08-06T12:54:16;93889.41;;;27.48;46.43
5380;BME280;2713;42.680;23.310;2023-08-06T12:56:44;93885.59;;;27.32;46.04
5380;BME280;2713;42.680;23.310;2023-08-06T12:59:11;93887.63;;;27.17;46.39
5380;BME280;2713;42.680;23.310;2023-08-06T13:01:38;93898.41;;;27.12;46.05
5380;BME280;2713;42.680;23.310;2023-08-06T13:04:05;93888.56;;;27.21;46.42
5380;BME280;2713;42.680;23.310;2023-08-06T13:06:32;93888.72;;;27.16;45.89
5380;BME280;2713;42.680;23.310;2023-08-06T13:09:01;93889.84;;;27.41;46.15
5380;BME280;2713;42.680;23.310;2023-08-06T13:11:28;93895.72;;;27.52;45.60
5380;BME280;2713;42.680;23.310;2023-08-06T13:14:03;93894.13;;;27.51;45.55